Plano's Hourly Summary for Wednesday, May 16, 2018
Hour Temp
(f)
RH
(%)
Solar Rad.
(MJ/m2)
Rainfall
(in)
Wind
(mph)
5/16/2018 12:00 AM 71 69 0 0 0
5/16/2018 1:00 AM 71 70 0 0 0
5/16/2018 2:00 AM 70 72 0 0 0
5/16/2018 3:00 AM 69 71 0 0 0.09
5/16/2018 4:00 AM 69 72 0 0 0.58
5/16/2018 5:00 AM 67 75 0 0 1.23
5/16/2018 6:00 AM 68 72 0 0 2.39
5/16/2018 7:00 AM 68 73 0.04 0 0.44
5/16/2018 8:00 AM 68 73 0.27 0 0.09
5/16/2018 9:00 AM 73 56 1.04 0 0.02
5/16/2018 10:00 AM 77 53 1.74 0 0.5
5/16/2018 11:00 AM 79 52 1.53 0 0.79
5/16/2018 12:00 PM 80 49 1.82 0 0.58
5/16/2018 1:00 PM 83 47 3.13 0 1.03
5/16/2018 2:00 PM 87 41 3.22 0 1.25
5/16/2018 3:00 PM 89 37 3.18 0 1.42
5/16/2018 4:00 PM 91 31 2.85 0 1.49
5/16/2018 5:00 PM 92 30 2.23 0 1.63
5/16/2018 6:00 PM 91 31 1.67 0 1.27
5/16/2018 7:00 PM 89 32 0.91 0 0.96
5/16/2018 8:00 PM 86 36 0.33 0 0.5
5/16/2018 9:00 PM 82 43 0.01 0 0.19
5/16/2018 10:00 PM 80 49 0 0 0.17
5/16/2018 11:00 PM 77 59 0 0 0.13
Data Summary 78 53 23.97 0.00 0.70